KGRK/GRK METAR and TAF weather

Enter ICAO airport designator
Station Type Date Time Source
KGRK METAR 2021/05/14 05:56 UTC NOAA

KGRK 140556Z AUTO 00000KT 10SM CLR 16/13 A3021 RMK AO2 SLP225 T01600127 10215 20160 402250139 58003


Station Type Date Time Source
KGRK Decoded METAR 2021/05/14 05:56 UTC NOAA

Fort Hood, Robert Gray AAF Ft Hood, TX, United States (KGRK) 31-04N 097-49W
May 14, 2021 - 01:56 AM EDT / 2021.05.14 0556 UTC
Wind: Calm:0
Visibility: 10 mile(s):0
Sky conditions: clear
Temperature: 60.8 F (16.0 C)
Dew Point: 54.9 F (12.7 C)
Relative Humidity: 80%
Pressure (altimeter): 30.21 in. Hg (1023 hPa)
Pressure tendency: 0.01 inches (0.3 hPa) lower than three hours ago
ob: KGRK 140556Z AUTO 00000KT 10SM CLR 16/13 A3021 RMK AO2 SLP225 T01600127 10215 20160 402250139 58003
cycle: 6

Station Type Date Time Source
KGRK TAF 2021/05/14 00:22 UTC NOAA

TAF KGRK 140000Z 1400/1506 VRB06KT 9999 OVC040 QNH3010INS
BECMG 1414/1415 15009KT 9999 BKN030 QNH3022INS TX24/1420Z TN15/1411Z

Example: see airport list